createdAt,value
2022-10-13T00:00:42.654Z,14.57
2022-10-13T00:03:10.819Z,13.55
2022-10-13T00:05:42.767Z,12.07
2022-10-13T00:08:09.880Z,11.05
2022-10-13T00:10:38.619Z,13.27
2022-10-13T00:13:06.003Z,14.25
2022-10-13T00:15:32.870Z,14.07
2022-10-13T00:17:59.763Z,12.63
2022-10-13T00:20:26.571Z,12.57
2022-10-13T00:22:53.301Z,14.13
2022-10-13T00:25:20.084Z,11.15
2022-10-13T00:27:46.945Z,12.93
2022-10-13T00:30:13.771Z,13.20
2022-10-13T00:32:40.582Z,13.95
2022-10-13T00:35:07.611Z,13.38
2022-10-13T00:37:34.403Z,12.13
2022-10-13T00:40:01.147Z,15.43
2022-10-13T00:42:28.044Z,11.25
2022-10-13T00:45:19.699Z,11.43
2022-10-13T00:47:51.605Z,12.57
2022-10-13T00:50:23.551Z,14.45
2022-10-13T00:52:54.395Z,11.32
2022-10-13T00:55:25.227Z,11.85
2022-10-13T00:57:55.810Z,13.75
2022-10-13T01:00:23.812Z,14.85
2022-10-13T01:02:50.952Z,12.02
2022-10-13T01:05:19.466Z,14.00
2022-10-13T01:07:49.086Z,11.73
2022-10-13T01:10:24.776Z,12.32
2022-10-13T01:13:22.471Z,12.93
2022-10-13T01:16:06.140Z,13.77
2022-10-13T01:18:46.464Z,10.18
2022-10-13T01:21:26.408Z,11.20
2022-10-13T01:24:14.728Z,15.00
2022-10-13T01:27:18.756Z,14.32
2022-10-13T01:30:06.955Z,13.68
2022-10-13T01:32:43.941Z,10.48
2022-10-13T01:35:13.299Z,9.57
2022-10-13T01:37:46.037Z,14.45
2022-10-13T01:40:16.879Z,12.70
2022-10-13T01:42:51.118Z,11.77
2022-10-13T01:45:21.978Z,14.45
2022-10-13T01:47:52.728Z,15.07
2022-10-13T01:50:20.641Z,13.57
2022-10-13T01:52:48.207Z,10.35
2022-10-13T01:55:15.145Z,11.93
2022-10-13T01:57:45.040Z,11.32
2022-10-13T02:00:18.078Z,12.60
2022-10-13T02:02:57.266Z,10.73
2022-10-13T02:05:54.948Z,13.77
2022-10-13T02:08:34.119Z,14.05
2022-10-13T02:11:14.485Z,12.10
2022-10-13T02:13:54.315Z,11.50
2022-10-13T02:16:23.609Z,11.52
2022-10-13T02:18:51.233Z,12.32
2022-10-13T02:21:18.536Z,13.50
2022-10-13T02:23:45.876Z,9.67
2022-10-13T02:26:14.083Z,12.00
2022-10-13T02:31:10.892Z,12.52
2022-10-13T02:33:37.614Z,10.63
2022-10-13T02:36:05.222Z,11.30
2022-10-13T02:38:31.969Z,11.07
2022-10-13T02:41:00.231Z,11.30
2022-10-13T02:45:56.152Z,13.02
2022-10-13T02:48:23.235Z,11.40
2022-10-13T02:50:49.947Z,13.60
2022-10-13T02:53:16.697Z,11.95
2022-10-13T02:55:43.439Z,11.77
2022-10-13T02:58:10.160Z,12.68
2022-10-13T03:00:39.175Z,11.55
2022-10-13T03:03:06.618Z,14.10
2022-10-13T03:05:33.421Z,11.77
2022-10-13T03:08:00.117Z,12.65
2022-10-13T03:10:27.106Z,11.57
2022-10-13T03:12:55.645Z,10.98
2022-10-13T03:15:22.542Z,13.45
2022-10-13T03:17:49.376Z,10.05
2022-10-13T03:20:16.298Z,11.40
2022-10-13T03:22:46.075Z,11.13
2022-10-13T03:25:16.337Z,11.95
2022-10-13T03:27:43.049Z,12.68
2022-10-13T03:30:10.624Z,10.48
2022-10-13T03:32:37.433Z,10.48
2022-10-13T03:35:05.799Z,11.65
2022-10-13T03:37:32.523Z,14.68
2022-10-13T03:39:59.977Z,11.70
2022-10-13T03:42:26.739Z,11.38
2022-10-13T03:44:56.331Z,11.63
2022-10-13T03:47:23.766Z,10.32
2022-10-13T03:49:50.462Z,12.27
2022-10-13T03:52:17.498Z,10.65
2022-10-13T03:54:44.467Z,9.75
2022-10-13T03:57:11.192Z,12.82
2022-10-13T03:59:40.644Z,12.65
2022-10-13T04:02:07.763Z,12.57
2022-10-13T04:04:35.289Z,12.52
2022-10-13T04:07:02.135Z,11.65
2022-10-13T04:09:28.961Z,12.98
2022-10-13T04:11:55.682Z,10.48
2022-10-13T04:14:22.463Z,12.43
2022-10-13T04:16:49.176Z,11.25
2022-10-13T04:19:16.120Z,10.90
2022-10-13T04:21:43.813Z,12.38
2022-10-13T04:24:13.221Z,11.23
2022-10-13T04:26:40.537Z,10.25
2022-10-13T04:29:09.629Z,10.70
2022-10-13T04:31:37.048Z,9.95
2022-10-13T04:34:04.113Z,9.97
2022-10-13T04:36:30.900Z,12.27
2022-10-13T04:38:57.724Z,10.90
2022-10-13T04:41:25.826Z,12.20
2022-10-13T04:43:53.564Z,12.13
2022-10-13T04:46:23.302Z,11.13
2022-10-13T04:48:53.157Z,14.35
2022-10-13T04:51:23.330Z,9.20
2022-10-13T04:53:58.105Z,9.95
2022-10-13T04:56:25.849Z,10.90
2022-10-13T04:58:52.713Z,9.25
2022-10-13T05:01:22.641Z,11.48
2022-10-13T05:03:54.196Z,10.45
2022-10-13T05:06:24.033Z,55.38
2022-10-13T05:08:51.134Z,34.65
2022-10-13T05:11:20.453Z,18.50
2022-10-13T05:13:48.487Z,25.92
2022-10-13T05:16:17.611Z,28.73
2022-10-13T05:18:44.628Z,45.80
2022-10-13T05:21:14.300Z,123.72
2022-10-13T05:23:41.880Z,273.75
2022-10-13T05:26:11.738Z,145.98
2022-10-13T05:28:38.926Z,135.77
2022-10-13T05:31:25.109Z,75.15
2022-10-13T05:33:52.504Z,49.83
2022-10-13T05:36:24.137Z,229.70
2022-10-13T05:38:52.674Z,576.67
2022-10-13T05:41:20.309Z,291.85
2022-10-13T05:43:47.060Z,223.05
2022-10-13T05:46:14.362Z,133.35
2022-10-13T05:48:41.096Z,147.38
2022-10-13T05:51:21.177Z,360.05
2022-10-13T05:53:56.904Z,162.10
2022-10-13T05:56:30.056Z,636.35
2022-10-13T05:59:01.586Z,131.02
2022-10-13T06:01:32.775Z,130.57
2022-10-13T06:04:04.325Z,394.20
2022-10-13T06:06:31.800Z,209.40
2022-10-13T06:09:00.356Z,132.13
2022-10-13T06:11:30.065Z,447.85
2022-10-13T06:13:56.808Z,825.33
2022-10-13T06:16:23.534Z,567.92
2022-10-13T06:18:50.272Z,602.60
2022-10-13T06:21:17.388Z,265.27
2022-10-13T06:23:44.106Z,306.95
2022-10-13T06:26:10.857Z,146.77
2022-10-13T06:28:38.158Z,122.35
2022-10-13T06:31:07.168Z,259.98
2022-10-13T06:33:34.389Z,98.43
2022-10-13T06:36:05.982Z,94.47
2022-10-13T06:38:33.286Z,1176.80
2022-10-13T06:41:04.922Z,965.28
2022-10-13T06:43:38.885Z,634.22
2022-10-13T06:46:07.415Z,965.17
2022-10-13T06:48:34.409Z,300.33
2022-10-13T06:51:02.943Z,521.20
2022-10-13T06:53:30.198Z,283.63
2022-10-13T06:55:59.126Z,187.07
2022-10-13T06:58:26.939Z,1120.43
2022-10-13T07:00:54.429Z,598.92
2022-10-13T07:03:21.191Z,499.00
2022-10-13T07:05:48.036Z,323.50
2022-10-13T07:08:15.718Z,516.45
2022-10-13T07:10:42.905Z,263.00
2022-10-13T07:13:09.792Z,127.75
2022-10-13T07:15:40.552Z,83.88
2022-10-13T07:18:07.756Z,141.52
2022-10-13T07:20:34.975Z,115.95
2022-10-13T07:23:02.364Z,104.80
2022-10-13T07:25:29.447Z,90.53
2022-10-13T07:27:56.635Z,58.35
2022-10-13T07:30:23.339Z,93.72
2022-10-13T07:32:50.481Z,65.60
2022-10-13T07:35:17.327Z,84.95
2022-10-13T07:37:44.086Z,503.08
2022-10-13T07:40:11.329Z,418.88
2022-10-13T07:42:38.082Z,195.63
2022-10-13T07:45:05.339Z,105.43
2022-10-13T07:47:32.053Z,77.30
2022-10-13T07:49:58.758Z,49.60
2022-10-13T07:52:25.529Z,60.78
2022-10-13T07:54:52.735Z,154.00
2022-10-13T07:57:20.180Z,75.43
2022-10-13T07:59:46.971Z,69.10
2022-10-13T08:02:14.461Z,121.53
2022-10-13T08:04:44.091Z,96.22
2022-10-13T08:07:11.550Z,150.45
2022-10-13T08:09:38.337Z,264.63
2022-10-13T08:12:05.132Z,106.65
2022-10-13T08:14:31.966Z,123.18
2022-10-13T08:16:58.843Z,61.03
2022-10-13T08:19:26.592Z,141.85
2022-10-13T08:21:59.199Z,130.68
2022-10-13T08:24:27.695Z,91.65
2022-10-13T08:26:54.655Z,149.82
2022-10-13T08:29:22.957Z,83.75
2022-10-13T08:31:52.755Z,122.55
2022-10-13T08:34:20.269Z,96.38
2022-10-13T08:36:47.438Z,118.40
2022-10-13T08:39:14.359Z,101.75
2022-10-13T08:41:44.033Z,108.63
2022-10-13T08:47:30.348Z,96.68
2022-10-13T08:50:01.123Z,355.95
2022-10-13T08:52:43.444Z,111.78
2022-10-13T08:55:33.122Z,88.57
2022-10-13T08:58:01.864Z,69.82
2022-10-13T09:00:30.382Z,121.65
2022-10-13T09:03:15.753Z,84.90
2022-10-13T09:05:53.287Z,171.90
2022-10-13T09:08:25.138Z,76.68
2022-10-13T09:10:52.162Z,212.80
2022-10-13T09:13:20.343Z,138.73
2022-10-13T09:15:48.466Z,84.35
2022-10-13T09:18:15.232Z,109.05
2022-10-13T09:20:44.797Z,104.22
2022-10-13T09:23:14.355Z,98.95
2022-10-13T09:25:46.552Z,101.85
2022-10-13T09:28:32.562Z,70.47
2022-10-13T09:31:11.640Z,559.58
2022-10-13T09:33:40.891Z,156.40
2022-10-13T09:36:11.194Z,101.57
2022-10-13T09:38:39.698Z,126.43
2022-10-13T09:41:21.782Z,66.05
2022-10-13T09:43:48.472Z,47.35
2022-10-13T09:46:20.520Z,52.95
2022-10-13T09:49:03.881Z,549.10
2022-10-13T09:51:44.859Z,204.20
2022-10-13T09:54:36.957Z,141.30
2022-10-13T09:57:09.120Z,487.23
2022-10-13T09:59:41.144Z,100.53
2022-10-13T10:02:34.654Z,133.73
2022-10-13T10:05:18.485Z,62.03
2022-10-13T10:07:45.799Z,60.47
2022-10-13T10:10:37.076Z,67.85
2022-10-13T10:13:06.454Z,69.35
2022-10-13T10:16:05.008Z,58.97
2022-10-13T10:18:47.320Z,51.70
2022-10-13T10:21:34.557Z,58.88
2022-10-13T10:24:24.345Z,39.00
2022-10-13T10:27:14.793Z,50.72
2022-10-13T10:29:49.023Z,32.67
2022-10-13T10:32:40.858Z,64.68
2022-10-13T10:35:16.765Z,72.65
2022-10-13T10:38:06.270Z,53.35
2022-10-13T10:41:11.511Z,75.60
2022-10-13T10:43:41.153Z,142.25
2022-10-13T10:46:20.071Z,57.35
2022-10-13T10:48:50.258Z,143.77
2022-10-13T10:51:18.076Z,47.70
2022-10-13T10:53:57.808Z,370.25
2022-10-13T10:56:40.654Z,88.30
2022-10-13T10:59:41.574Z,62.13
2022-10-13T11:02:08.303Z,68.53
2022-10-13T11:04:40.796Z,104.35
2022-10-13T11:07:30.748Z,256.90
2022-10-13T11:09:57.467Z,210.85
2022-10-13T11:12:26.217Z,181.20
2022-10-13T11:15:16.043Z,145.23
2022-10-13T11:17:43.000Z,111.47
2022-10-13T11:20:21.552Z,209.02
2022-10-13T11:23:00.618Z,94.88
2022-10-13T11:25:49.287Z,70.93
2022-10-13T11:28:22.475Z,65.78
2022-10-13T11:31:33.543Z,85.18
2022-10-13T11:34:03.565Z,55.00
2022-10-13T11:36:31.633Z,54.80
2022-10-13T11:39:20.087Z,65.47
2022-10-13T11:42:02.486Z,73.30
2022-10-13T11:44:50.832Z,48.00
2022-10-13T11:47:55.488Z,56.92
2022-10-13T11:50:41.109Z,54.35
2022-10-13T11:53:24.332Z,37.70
2022-10-13T11:55:56.145Z,58.15
2022-10-13T11:58:25.505Z,46.38
2022-10-13T12:01:00.752Z,31.95
2022-10-13T12:03:58.162Z,45.58
2022-10-13T12:06:36.882Z,44.45
2022-10-13T12:09:24.362Z,41.47
2022-10-13T12:12:19.255Z,41.78
2022-10-13T12:14:52.624Z,37.00
2022-10-13T12:17:23.743Z,41.90
2022-10-13T12:19:51.521Z,75.95
2022-10-13T12:22:18.232Z,85.20
2022-10-13T12:25:00.871Z,80.05
2022-10-13T12:27:35.332Z,79.57
2022-10-13T12:30:19.515Z,86.07
2022-10-13T12:32:50.450Z,86.38
2022-10-13T12:35:28.124Z,91.82
2022-10-13T12:37:56.381Z,56.25
2022-10-13T12:45:24.521Z,118.03
2022-10-13T12:47:53.378Z,85.63
2022-10-13T12:50:23.798Z,67.28
2022-10-13T12:52:52.757Z,73.13
2022-10-13T12:55:21.735Z,138.27
2022-10-13T12:57:50.991Z,446.50
2022-10-13T13:00:21.039Z,196.55
2022-10-13T13:02:52.348Z,80.35
2022-10-13T13:05:32.884Z,76.72
2022-10-13T13:08:00.653Z,56.05
2022-10-13T13:10:27.911Z,110.93
2022-10-13T13:12:56.189Z,75.77
2022-10-13T13:17:59.352Z,140.95
2022-10-13T13:20:29.854Z,78.65
2022-10-13T13:22:56.780Z,675.33
2022-10-13T13:25:24.510Z,254.32
2022-10-13T13:27:52.015Z,119.40
2022-10-13T13:30:23.145Z,109.18
2022-10-13T13:32:50.156Z,125.25
2022-10-13T13:35:17.856Z,144.32
2022-10-13T13:37:49.674Z,130.57
2022-10-13T13:40:22.182Z,111.72
2022-10-13T13:42:49.237Z,107.05
2022-10-13T13:45:18.195Z,104.43
2022-10-13T13:47:45.281Z,95.28
2022-10-13T13:50:24.426Z,104.78
2022-10-13T13:52:51.569Z,107.43
2022-10-13T13:55:18.762Z,92.25
2022-10-13T13:57:45.524Z,102.15
2022-10-13T14:00:14.489Z,80.70
2022-10-13T14:02:42.877Z,83.68
2022-10-13T14:05:12.746Z,78.28
2022-10-13T14:07:40.539Z,87.90
2022-10-13T14:10:09.308Z,74.25
2022-10-13T14:12:36.604Z,77.00
2022-10-13T14:15:03.792Z,87.03
2022-10-13T14:17:30.578Z,74.15
2022-10-13T14:19:57.356Z,80.68
2022-10-13T14:22:24.429Z,74.25
2022-10-13T14:24:51.448Z,77.38
2022-10-13T14:27:18.184Z,82.82
2022-10-13T14:29:44.958Z,74.18
2022-10-13T14:32:12.046Z,73.65
2022-10-13T14:34:38.935Z,67.03
2022-10-13T14:37:05.714Z,57.92
2022-10-13T14:39:32.467Z,58.25
2022-10-13T14:41:59.199Z,62.78
2022-10-13T14:44:25.970Z,62.50
2022-10-13T14:46:52.769Z,62.95
2022-10-13T14:49:19.473Z,58.40
2022-10-13T14:51:46.273Z,60.08
2022-10-13T14:54:13.279Z,57.33
2022-10-13T14:56:40.509Z,56.85
2022-10-13T14:59:07.897Z,48.58
2022-10-13T15:01:34.807Z,51.87
2022-10-13T15:04:02.596Z,47.47
2022-10-13T15:06:29.588Z,57.85
2022-10-13T15:08:57.104Z,48.28
2022-10-13T15:11:25.209Z,53.03
2022-10-13T15:13:52.367Z,51.03
2022-10-13T15:16:29.191Z,51.45
2022-10-13T15:18:57.202Z,46.55
2022-10-13T15:21:24.525Z,48.03
2022-10-13T15:23:51.513Z,44.45
2022-10-13T15:26:19.899Z,45.22
2022-10-13T15:28:52.759Z,40.47
2022-10-13T15:31:21.368Z,46.25
2022-10-13T15:33:51.803Z,41.83
2022-10-13T15:36:19.657Z,51.05
2022-10-13T15:38:46.621Z,42.35
2022-10-13T15:41:13.380Z,44.45
2022-10-13T15:43:40.214Z,42.47
2022-10-13T15:46:11.662Z,39.53
2022-10-13T15:48:39.370Z,43.53
2022-10-13T15:51:14.204Z,42.75
2022-10-13T15:53:40.986Z,42.72
2022-10-13T15:56:08.473Z,39.67
2022-10-13T15:58:38.786Z,40.42
2022-10-13T16:01:10.606Z,43.22
2022-10-13T16:03:37.831Z,40.90
2022-10-13T16:06:06.780Z,39.63
2022-10-13T16:08:40.630Z,34.90
2022-10-13T16:11:09.513Z,40.10
2022-10-13T16:13:36.368Z,39.85
2022-10-13T16:16:05.966Z,39.10
2022-10-13T16:18:37.371Z,38.47
2022-10-13T16:21:18.474Z,35.53
2022-10-13T16:23:46.939Z,36.70
2022-10-13T16:26:14.715Z,37.03
2022-10-13T16:28:41.578Z,36.15
2022-10-13T16:31:13.327Z,33.35
2022-10-13T16:33:41.598Z,32.83
2022-10-13T16:38:37.097Z,36.85
2022-10-13T16:41:09.904Z,29.23
2022-10-13T16:43:36.644Z,39.08
2022-10-13T16:46:05.368Z,34.25
2022-10-13T16:48:33.317Z,27.75
2022-10-13T16:51:04.395Z,37.70
2022-10-13T16:53:31.187Z,31.15
2022-10-13T16:55:57.910Z,27.25
2022-10-13T16:58:24.843Z,33.47
2022-10-13T17:00:51.576Z,30.25
2022-10-13T17:03:18.395Z,31.13
2022-10-13T17:05:45.107Z,33.00
2022-10-13T17:08:11.833Z,27.10
2022-10-13T17:10:38.568Z,30.75
2022-10-13T17:13:05.330Z,27.80
2022-10-13T17:15:32.052Z,28.58
2022-10-13T17:17:58.831Z,31.40
2022-10-13T17:20:25.541Z,29.30
2022-10-13T17:22:52.288Z,26.83
2022-10-13T17:25:18.995Z,30.45
2022-10-13T17:27:45.806Z,31.65
2022-10-13T17:30:12.588Z,26.08
2022-10-13T17:32:42.198Z,30.83
2022-10-13T17:35:14.343Z,31.02
2022-10-13T17:37:41.063Z,26.33
2022-10-13T17:40:08.221Z,27.55
2022-10-13T17:42:34.978Z,24.17
2022-10-13T17:45:01.829Z,26.80
2022-10-13T17:47:31.135Z,22.77
2022-10-13T17:50:00.111Z,25.15
2022-10-13T17:52:26.956Z,24.98
2022-10-13T17:54:53.733Z,21.13
2022-10-13T17:57:20.697Z,26.77
2022-10-13T17:59:47.729Z,25.45
2022-10-13T18:02:14.545Z,30.52
2022-10-13T18:04:41.704Z,27.95
2022-10-13T18:07:08.450Z,24.77
2022-10-13T18:09:35.215Z,24.00
2022-10-13T18:12:01.945Z,22.45
2022-10-13T18:14:29.134Z,18.98
2022-10-13T18:16:56.400Z,23.45
2022-10-13T18:19:25.575Z,20.77
2022-10-13T18:21:53.063Z,22.80
2022-10-13T18:24:20.252Z,21.00
2022-10-13T18:26:47.489Z,19.88
2022-10-13T18:29:14.838Z,19.48
2022-10-13T18:31:42.972Z,23.27
2022-10-13T18:34:14.025Z,19.48
2022-10-13T18:36:47.296Z,18.13
2022-10-13T18:39:17.698Z,20.10
2022-10-13T18:41:45.136Z,18.88
2022-10-13T18:44:12.610Z,21.50
2022-10-13T18:46:40.197Z,17.45
2022-10-13T18:49:13.514Z,19.80
2022-10-13T18:51:41.176Z,20.30
2022-10-13T18:54:08.924Z,18.15
2022-10-13T18:56:37.038Z,22.30
2022-10-13T19:01:36.494Z,23.27
2022-10-13T19:04:04.251Z,20.05
2022-10-13T19:06:32.459Z,23.85
2022-10-13T19:11:31.895Z,19.52
2022-10-13T19:13:59.876Z,20.42
2022-10-13T19:16:29.245Z,17.73
2022-10-13T19:18:56.379Z,19.50
2022-10-13T19:21:23.683Z,18.58
2022-10-13T19:23:50.462Z,18.75
2022-10-13T19:26:26.730Z,16.77
2022-10-13T19:28:55.515Z,14.95
2022-10-13T19:31:26.318Z,17.98
2022-10-13T19:33:54.112Z,14.95
2022-10-13T19:36:25.227Z,16.85
2022-10-13T19:38:52.180Z,16.85
2022-10-13T19:41:21.829Z,16.38
2022-10-13T19:43:49.024Z,21.23
2022-10-13T19:46:19.152Z,16.95
2022-10-13T19:48:46.015Z,19.88
2022-10-13T19:51:12.934Z,17.02
2022-10-13T19:53:40.134Z,16.13
2022-10-13T19:56:07.817Z,18.90
2022-10-13T19:58:35.476Z,18.00
2022-10-13T20:01:06.853Z,19.25
2022-10-13T20:03:33.750Z,15.63
2022-10-13T20:06:04.265Z,16.15
2022-10-13T20:08:30.992Z,15.50
2022-10-13T20:10:57.849Z,15.73
2022-10-13T20:13:24.619Z,16.15
2022-10-13T20:15:51.373Z,17.55
2022-10-13T20:18:18.231Z,21.65
2022-10-13T20:20:44.964Z,14.10
2022-10-13T20:23:11.877Z,14.50
2022-10-13T20:25:40.849Z,17.40
2022-10-13T20:28:07.627Z,18.83
2022-10-13T20:30:34.384Z,15.07
2022-10-13T20:33:01.148Z,16.67
2022-10-13T20:35:27.902Z,17.42
2022-10-13T20:37:54.646Z,14.52
2022-10-13T20:40:21.532Z,14.13
2022-10-13T20:42:52.381Z,14.75
2022-10-13T20:45:19.224Z,14.75
2022-10-13T20:47:46.926Z,17.70
2022-10-13T20:50:13.960Z,15.60
2022-10-13T20:52:40.729Z,14.25
2022-10-13T20:55:07.771Z,14.10
2022-10-13T20:57:34.972Z,18.52
2022-10-13T21:00:01.875Z,18.67
2022-10-13T21:02:28.584Z,14.05
2022-10-13T21:04:55.339Z,13.32
2022-10-13T21:07:22.945Z,16.40
2022-10-13T21:09:53.681Z,15.80
2022-10-13T21:12:21.525Z,13.38
2022-10-13T21:14:48.868Z,19.92
2022-10-13T21:17:15.573Z,15.27
2022-10-13T21:19:42.310Z,11.43
2022-10-13T21:22:09.028Z,14.63
2022-10-13T21:24:35.790Z,12.70
2022-10-13T21:27:02.515Z,16.10
2022-10-13T21:29:30.385Z,13.02
2022-10-13T21:31:57.084Z,13.20
2022-10-13T21:34:23.868Z,14.32
2022-10-13T21:36:50.616Z,14.43
2022-10-13T21:39:17.424Z,13.77
2022-10-13T21:41:44.241Z,13.07
2022-10-13T21:44:14.288Z,13.68
2022-10-13T21:46:43.627Z,14.73
2022-10-13T21:49:10.360Z,15.05
2022-10-13T21:51:39.087Z,14.20
2022-10-13T21:54:12.046Z,14.82
2022-10-13T21:56:42.033Z,13.15
2022-10-13T21:59:11.201Z,13.48
2022-10-13T22:01:37.995Z,14.65
2022-10-13T22:04:06.256Z,13.05
2022-10-13T22:09:02.206Z,13.32
2022-10-13T22:11:31.394Z,15.15
2022-10-13T22:13:58.579Z,13.20
2022-10-13T22:16:32.083Z,10.93
2022-10-13T22:18:59.217Z,13.45
2022-10-13T22:21:35.315Z,12.80
2022-10-13T22:24:04.339Z,12.98
2022-10-13T22:26:34.201Z,14.65
2022-10-13T22:29:02.584Z,13.55
2022-10-13T22:31:30.631Z,13.00
2022-10-13T22:33:57.965Z,11.52
2022-10-13T22:36:26.150Z,14.53
2022-10-13T22:38:55.770Z,12.10
2022-10-13T22:41:23.016Z,12.60
2022-10-13T22:43:51.662Z,14.63
2022-10-13T22:46:22.533Z,11.05
2022-10-13T22:48:49.446Z,13.95
2022-10-13T22:51:20.326Z,11.18
2022-10-13T22:53:47.488Z,13.15
2022-10-13T22:56:20.710Z,15.73
2022-10-13T22:59:06.103Z,12.27
2022-10-13T23:01:33.333Z,10.98
2022-10-13T23:04:00.632Z,12.85
2022-10-13T23:06:29.783Z,11.73
2022-10-13T23:08:59.697Z,11.45
2022-10-13T23:11:26.733Z,12.02
2022-10-13T23:13:53.621Z,13.82
2022-10-13T23:16:23.207Z,12.10
2022-10-13T23:18:49.989Z,14.15
2022-10-13T23:21:19.074Z,11.30
2022-10-13T23:23:46.590Z,10.60
2022-10-13T23:26:16.627Z,13.27
2022-10-13T23:28:43.950Z,12.27
2022-10-13T23:31:13.675Z,11.10
2022-10-13T23:33:40.700Z,13.35
2022-10-13T23:36:08.325Z,14.18
2022-10-13T23:38:35.203Z,12.23
2022-10-13T23:41:04.013Z,12.50
2022-10-13T23:43:30.830Z,11.82
2022-10-13T23:45:57.709Z,11.13
2022-10-13T23:48:24.490Z,10.82
2022-10-13T23:50:51.274Z,10.48
2022-10-13T23:53:18.613Z,11.02
2022-10-13T23:55:45.357Z,11.57
2022-10-13T23:58:13.580Z,11.40
